createdAt,value
2023-04-19T00:01:37.911Z,8.47
2023-04-19T00:03:39.594Z,8.45
2023-04-19T00:05:41.668Z,8.41
2023-04-19T00:07:43.423Z,8.43
2023-04-19T00:09:44.932Z,8.40
2023-04-19T00:11:46.375Z,8.38
2023-04-19T00:13:49.295Z,8.32
2023-04-19T00:15:50.840Z,8.30
2023-04-19T00:17:52.391Z,8.28
2023-04-19T00:19:53.928Z,8.25
2023-04-19T00:21:55.415Z,8.22
2023-04-19T00:23:56.883Z,8.18
2023-04-19T00:25:58.359Z,8.17
2023-04-19T00:28:00.203Z,8.13
2023-04-19T00:30:01.992Z,8.12
2023-04-19T00:32:05.845Z,8.06
2023-04-19T00:34:07.387Z,8.03
2023-04-19T00:36:10.611Z,7.99
2023-04-19T00:38:12.119Z,7.97
2023-04-19T00:40:13.667Z,7.92
2023-04-19T00:42:15.112Z,7.89
2023-04-19T00:44:16.702Z,7.86
2023-04-19T00:46:18.532Z,7.81
2023-04-19T00:48:20.162Z,7.79
2023-04-19T00:50:21.914Z,7.77
2023-04-19T00:52:23.476Z,7.75
2023-04-19T00:54:25.602Z,7.69
2023-04-19T00:56:27.534Z,7.64
2023-04-19T00:58:31.460Z,7.62
2023-04-19T01:00:33.503Z,7.61
2023-04-19T01:02:35.791Z,7.60
2023-04-19T01:04:37.543Z,7.56
2023-04-19T01:06:40.659Z,7.56
2023-04-19T01:08:42.176Z,7.57
2023-04-19T01:10:43.681Z,7.56
2023-04-19T01:12:45.180Z,7.52
2023-04-19T01:14:46.693Z,7.48
2023-04-19T01:16:48.244Z,7.47
2023-04-19T01:18:49.741Z,7.44
2023-04-19T01:20:52.012Z,7.42
2023-04-19T01:22:53.589Z,7.40
2023-04-19T01:24:55.048Z,7.37
2023-04-19T01:26:56.507Z,7.33
2023-04-19T01:28:58.032Z,7.26
2023-04-19T01:30:59.761Z,7.23
2023-04-19T01:33:01.332Z,7.19
2023-04-19T01:35:03.097Z,7.15
2023-04-19T01:37:04.577Z,7.12
2023-04-19T01:39:06.115Z,7.06
2023-04-19T01:41:07.983Z,7.04
2023-04-19T01:43:13.132Z,7.00
2023-04-19T01:45:14.638Z,6.98
2023-04-19T01:47:16.150Z,6.96
2023-04-19T01:49:17.596Z,6.93
2023-04-19T01:51:21.710Z,6.89
2023-04-19T01:53:23.175Z,6.88
2023-04-19T01:55:24.964Z,6.84
2023-04-19T01:57:26.440Z,6.82
2023-04-19T01:59:27.916Z,6.79
2023-04-19T02:01:29.496Z,6.74
2023-04-19T02:03:31.125Z,6.69
2023-04-19T02:05:32.809Z,6.67
2023-04-19T02:07:34.749Z,6.65
2023-04-19T02:09:37.357Z,6.61
2023-04-19T02:11:38.942Z,6.57
2023-04-19T02:13:41.762Z,6.53
2023-04-19T02:15:43.222Z,6.51
2023-04-19T02:17:46.817Z,6.45
2023-04-19T02:19:48.270Z,6.45
2023-04-19T02:21:49.831Z,6.43
2023-04-19T02:23:51.324Z,6.38
2023-04-19T02:25:53.704Z,6.35
2023-04-19T02:27:55.335Z,6.32
2023-04-19T02:29:56.909Z,6.29
2023-04-19T02:31:58.433Z,6.27
2023-04-19T02:33:59.932Z,6.24
2023-04-19T02:36:01.408Z,6.20
2023-04-19T02:38:03.851Z,6.19
2023-04-19T02:40:06.024Z,6.19
2023-04-19T02:42:07.477Z,6.14
2023-04-19T02:44:08.926Z,6.11
2023-04-19T02:46:10.555Z,6.09
2023-04-19T02:48:12.111Z,6.07
2023-04-19T02:50:15.023Z,6.02
2023-04-19T02:52:16.680Z,5.99
2023-04-19T02:54:18.217Z,5.93
2023-04-19T02:56:19.684Z,5.89
2023-04-19T02:58:21.230Z,5.88
2023-04-19T03:00:22.710Z,5.83
2023-04-19T03:02:24.466Z,5.82
2023-04-19T03:04:25.985Z,5.79
2023-04-19T03:06:27.477Z,5.77
2023-04-19T03:08:29.400Z,5.74
2023-04-19T03:10:30.911Z,5.73
2023-04-19T03:12:32.380Z,5.67
2023-04-19T03:14:34.160Z,5.63
2023-04-19T03:16:35.649Z,5.60
2023-04-19T03:18:37.128Z,5.58
2023-04-19T03:20:38.751Z,5.56
2023-04-19T03:22:40.254Z,5.53
2023-04-19T03:24:41.852Z,5.48
2023-04-19T03:26:43.303Z,5.48
2023-04-19T03:28:44.786Z,5.45
2023-04-19T03:30:46.328Z,5.44
2023-04-19T03:32:48.227Z,5.39
2023-04-19T03:34:49.736Z,5.38
2023-04-19T03:36:51.210Z,5.34
2023-04-19T03:38:52.791Z,5.30
2023-04-19T03:40:56.020Z,5.27
2023-04-19T03:42:57.476Z,5.22
2023-04-19T03:44:58.930Z,5.21
2023-04-19T03:47:00.431Z,5.17
2023-04-19T03:49:02.025Z,5.15
2023-04-19T03:51:03.678Z,5.15
2023-04-19T03:53:07.974Z,5.12
2023-04-19T03:55:10.785Z,5.08
2023-04-19T03:57:15.132Z,5.06
2023-04-19T03:59:16.581Z,5.00
2023-04-19T04:01:21.665Z,5.01
2023-04-19T04:03:23.234Z,4.97
2023-04-19T04:05:28.428Z,4.96
2023-04-19T04:07:29.932Z,4.93
2023-04-19T04:09:31.455Z,4.92
2023-04-19T04:11:33.003Z,4.87
2023-04-19T04:13:34.450Z,4.84
2023-04-19T04:15:36.232Z,4.85
2023-04-19T04:17:37.739Z,4.82
2023-04-19T04:19:39.224Z,4.82
2023-04-19T04:21:40.942Z,4.80
2023-04-19T04:23:42.420Z,4.80
2023-04-19T04:25:43.873Z,4.78
2023-04-19T04:27:45.658Z,4.76
2023-04-19T04:29:47.343Z,4.77
2023-04-19T04:31:48.847Z,4.76
2023-04-19T04:33:50.988Z,4.73
2023-04-19T04:35:53.536Z,4.73
2023-04-19T04:37:55.064Z,4.74
2023-04-19T04:39:56.602Z,4.77
2023-04-19T04:41:58.063Z,4.74
2023-04-19T04:44:12.021Z,4.73
2023-04-19T04:46:14.239Z,4.72
2023-04-19T04:48:16.168Z,4.72
2023-04-19T04:50:17.834Z,4.69
2023-04-19T04:52:19.298Z,4.68
2023-04-19T04:54:20.777Z,4.67
2023-04-19T04:56:22.338Z,4.66
2023-04-19T04:58:23.832Z,4.65
2023-04-19T05:00:25.620Z,4.65
2023-04-19T05:02:27.213Z,4.62
2023-04-19T05:04:28.835Z,4.60
2023-04-19T05:06:30.290Z,4.62
2023-04-19T05:08:31.814Z,4.62
2023-04-19T05:10:33.321Z,4.63
2023-04-19T05:12:34.813Z,4.63
2023-04-19T05:14:36.301Z,4.62
2023-04-19T05:16:37.857Z,4.61
2023-04-19T05:18:39.360Z,4.60
2023-04-19T05:20:40.872Z,4.61
2023-04-19T05:22:42.334Z,4.59
2023-04-19T05:24:43.776Z,4.60
2023-04-19T05:26:45.248Z,4.59
2023-04-19T05:28:46.854Z,4.58
2023-04-19T05:30:48.328Z,4.62
2023-04-19T05:32:50.001Z,4.65
2023-04-19T05:34:51.573Z,4.66
2023-04-19T05:36:53.050Z,4.68
2023-04-19T05:38:54.525Z,4.70
2023-04-19T05:40:56.059Z,4.70
2023-04-19T05:42:57.509Z,4.74
2023-04-19T05:44:59.026Z,4.77
2023-04-19T05:47:00.745Z,4.77
2023-04-19T05:49:02.628Z,4.81
2023-04-19T05:51:04.233Z,4.82
2023-04-19T05:53:05.835Z,4.85
2023-04-19T05:55:07.678Z,4.86
2023-04-19T05:57:09.203Z,4.88
2023-04-19T05:59:11.598Z,4.88
2023-04-19T06:01:13.664Z,4.88
2023-04-19T06:03:15.339Z,4.92
2023-04-19T06:05:17.240Z,4.93
2023-04-19T06:07:30.903Z,4.98
2023-04-19T06:09:33.417Z,5.03
2023-04-19T06:11:42.786Z,5.08
2023-04-19T06:13:50.891Z,5.13
2023-04-19T06:15:52.450Z,5.16
2023-04-19T06:17:54.080Z,5.19
2023-04-19T06:19:55.743Z,5.24
2023-04-19T06:21:57.298Z,5.28
2023-04-19T06:23:58.854Z,5.31
2023-04-19T06:26:00.524Z,5.36
2023-04-19T06:28:02.055Z,5.40
2023-04-19T06:30:04.157Z,5.47
2023-04-19T06:32:05.645Z,5.52
2023-04-19T06:34:07.121Z,5.58
2023-04-19T06:36:08.953Z,5.63
2023-04-19T06:38:10.465Z,5.69
2023-04-19T06:40:12.138Z,5.74
2023-04-19T06:42:13.814Z,5.78
2023-04-19T06:44:15.553Z,5.83
2023-04-19T06:46:17.242Z,5.87
2023-04-19T06:48:18.773Z,5.87
2023-04-19T06:50:20.706Z,5.89
2023-04-19T06:52:22.324Z,5.90
2023-04-19T06:54:24.049Z,5.94
2023-04-19T06:56:45.939Z,5.97
2023-04-19T06:58:47.434Z,5.99
2023-04-19T07:00:48.894Z,6.04
2023-04-19T07:02:51.050Z,6.12
2023-04-19T07:04:52.753Z,6.15
2023-04-19T07:06:54.300Z,6.17
2023-04-19T07:08:55.780Z,6.21
2023-04-19T07:10:57.296Z,6.25
2023-04-19T07:12:58.772Z,6.30
2023-04-19T07:15:00.348Z,6.33
2023-04-19T07:17:03.717Z,6.35
2023-04-19T07:19:05.254Z,6.34
2023-04-19T07:21:06.753Z,6.37
2023-04-19T07:23:08.196Z,6.45
2023-04-19T07:25:10.440Z,6.53
2023-04-19T07:27:12.146Z,6.60
2023-04-19T07:29:13.645Z,6.71
2023-04-19T07:31:16.807Z,6.81
2023-04-19T07:33:18.477Z,6.84
2023-04-19T07:35:20.127Z,6.85
2023-04-19T07:37:21.654Z,6.88
2023-04-19T07:39:23.196Z,6.93
2023-04-19T07:41:24.697Z,7.00
2023-04-19T07:43:26.948Z,7.06
2023-04-19T07:45:30.729Z,7.15
2023-04-19T07:47:32.587Z,7.25
2023-04-19T07:49:34.555Z,7.28
2023-04-19T07:51:36.147Z,7.36
2023-04-19T07:53:39.961Z,7.39
2023-04-19T07:55:41.399Z,7.42
2023-04-19T07:57:48.288Z,7.49
2023-04-19T07:59:49.800Z,7.56
2023-04-19T08:01:51.444Z,7.64
2023-04-19T08:03:53.198Z,7.71
2023-04-19T08:05:54.993Z,7.77
2023-04-19T08:07:57.071Z,7.88
2023-04-19T08:09:58.578Z,7.96
2023-04-19T08:12:01.259Z,8.03
2023-04-19T08:14:26.829Z,8.06
2023-04-19T08:16:56.279Z,8.10
2023-04-19T08:18:46.480Z,8.14
2023-04-19T08:20:48.368Z,8.19
2023-04-19T08:22:50.060Z,8.28
2023-04-19T08:24:52.020Z,8.29
2023-04-19T08:26:54.261Z,8.32
2023-04-19T08:28:55.964Z,8.41
2023-04-19T08:30:59.146Z,8.49
2023-04-19T08:33:01.379Z,8.59
2023-04-19T08:35:03.839Z,8.61
2023-04-19T08:37:07.336Z,8.65
2023-04-19T08:39:24.933Z,8.71
2023-04-19T08:41:33.160Z,8.82
2023-04-19T08:43:38.098Z,8.90
2023-04-19T08:45:41.253Z,8.98
2023-04-19T08:49:53.713Z,9.13
2023-04-19T08:52:08.103Z,9.24
2023-04-19T08:54:10.910Z,9.37
2023-04-19T08:56:24.054Z,9.45
2023-04-19T08:58:45.825Z,9.46
2023-04-19T09:00:54.510Z,9.52
2023-04-19T09:02:56.262Z,9.50
2023-04-19T09:04:58.154Z,9.55
2023-04-19T09:06:59.819Z,9.63
2023-04-19T09:09:43.051Z,9.76
2023-04-19T09:11:47.745Z,9.73
2023-04-19T09:13:50.000Z,9.75
2023-04-19T09:15:53.901Z,9.83
2023-04-19T09:18:28.987Z,9.91
2023-04-19T09:20:40.305Z,9.95
2023-04-19T09:22:41.848Z,10.00
2023-04-19T09:26:57.890Z,10.21
2023-04-19T09:29:04.910Z,10.25
2023-04-19T09:31:33.202Z,10.31
2023-04-19T09:33:39.410Z,10.28
2023-04-19T09:35:48.020Z,10.29
2023-04-19T09:38:05.825Z,10.34
2023-04-19T09:40:24.809Z,10.38
2023-04-19T09:43:04.309Z,10.39
2023-04-19T09:47:25.562Z,10.56
2023-04-19T09:49:41.805Z,10.63
2023-04-19T09:51:56.623Z,10.84
2023-04-19T09:53:58.261Z,10.83
2023-04-19T09:56:02.368Z,10.97
2023-04-19T09:58:04.420Z,11.04
2023-04-19T10:00:08.963Z,11.16
2023-04-19T10:02:11.872Z,11.20
2023-04-19T10:04:32.708Z,11.24
2023-04-19T10:06:58.451Z,11.36
2023-04-19T10:08:59.524Z,11.42
2023-04-19T10:11:02.563Z,11.36
2023-04-19T10:13:19.284Z,11.39
2023-04-19T10:15:23.399Z,11.39
2023-04-19T10:17:25.937Z,11.38
2023-04-19T10:19:28.972Z,11.43
2023-04-19T10:21:31.870Z,11.47
2023-04-19T10:23:33.780Z,11.59
2023-04-19T10:25:38.429Z,11.63
2023-04-19T10:27:41.949Z,11.77
2023-04-19T10:29:59.648Z,11.98
2023-04-19T10:32:05.158Z,12.12
2023-04-19T10:34:06.660Z,12.09
2023-04-19T10:36:14.844Z,12.14
2023-04-19T10:38:16.571Z,12.26
2023-04-19T10:40:57.051Z,12.32
2023-04-19T10:43:13.538Z,12.44
2023-04-19T10:45:34.944Z,12.58
2023-04-19T10:47:45.522Z,12.78
2023-04-19T10:49:47.177Z,12.94
2023-04-19T10:51:54.881Z,13.14
2023-04-19T10:54:01.835Z,13.24
2023-04-19T10:56:03.392Z,13.39
2023-04-19T10:58:06.476Z,13.59
2023-04-19T11:00:21.534Z,13.88
2023-04-19T11:02:23.183Z,14.02
2023-04-19T11:04:58.087Z,14.15
2023-04-19T11:07:07.280Z,14.32
2023-04-19T11:09:10.722Z,14.54
2023-04-19T11:11:13.562Z,14.83
2023-04-19T11:13:16.049Z,14.95
2023-04-19T11:15:21.723Z,15.17
2023-04-19T11:17:32.033Z,15.57
2023-04-19T11:19:33.698Z,16.09
2023-04-19T11:21:40.911Z,16.08
2023-04-19T11:23:42.418Z,16.14
2023-04-19T11:25:45.197Z,16.49
2023-04-19T11:27:48.879Z,16.66
2023-04-19T11:29:50.473Z,16.84
2023-04-19T11:31:52.185Z,16.98
2023-04-19T11:33:54.148Z,17.35
2023-04-19T11:35:55.732Z,17.60
2023-04-19T11:37:59.041Z,17.82
2023-04-19T11:40:02.113Z,18.07
2023-04-19T11:42:05.226Z,18.15
2023-04-19T11:44:19.791Z,18.31
2023-04-19T11:46:21.415Z,18.66
2023-04-19T11:48:22.930Z,19.02
2023-04-19T11:50:38.815Z,19.41
2023-04-19T11:52:40.486Z,19.57
2023-04-19T11:54:42.190Z,19.86
2023-04-19T11:56:59.135Z,20.05
2023-04-19T11:59:00.817Z,20.25
2023-04-19T12:01:06.580Z,20.33
2023-04-19T12:03:08.807Z,20.03
2023-04-19T12:05:15.576Z,19.69
2023-04-19T12:07:17.172Z,19.69
2023-04-19T12:09:22.895Z,19.28
2023-04-19T12:11:41.895Z,18.92
2023-04-19T12:13:44.588Z,18.50
2023-04-19T12:15:46.918Z,18.54
2023-04-19T12:17:59.557Z,18.75
2023-04-19T12:20:01.137Z,18.92
2023-04-19T12:22:09.675Z,19.10
2023-04-19T12:24:11.026Z,19.36
2023-04-19T12:26:12.618Z,19.64
2023-04-19T12:28:15.455Z,19.82
2023-04-19T12:30:16.993Z,19.85
2023-04-19T12:32:18.744Z,19.71
2023-04-19T12:34:20.888Z,19.45
2023-04-19T12:36:22.443Z,19.38
2023-04-19T12:38:23.944Z,19.21
2023-04-19T12:40:26.611Z,19.01
2023-04-19T12:42:28.035Z,18.64
2023-04-19T12:44:29.484Z,18.48
2023-04-19T12:46:31.234Z,18.49
2023-04-19T12:48:32.826Z,18.61
2023-04-19T12:50:34.351Z,18.53
2023-04-19T12:52:36.131Z,18.44
2023-04-19T12:54:37.589Z,18.44
2023-04-19T12:56:39.145Z,18.39
2023-04-19T12:58:40.682Z,18.29
2023-04-19T13:00:42.862Z,18.26
2023-04-19T13:02:44.532Z,18.23
2023-04-19T13:04:46.268Z,18.21
2023-04-19T13:06:47.866Z,18.19
2023-04-19T13:08:49.695Z,18.16
2023-04-19T13:10:52.413Z,18.19
2023-04-19T13:12:53.874Z,18.07
2023-04-19T13:14:55.455Z,18.04
2023-04-19T13:16:56.940Z,18.06
2023-04-19T13:18:58.578Z,17.97
2023-04-19T13:21:00.135Z,17.95
2023-04-19T13:23:01.588Z,17.94
2023-04-19T13:25:03.930Z,17.99
2023-04-19T13:27:08.601Z,17.89
2023-04-19T13:29:10.535Z,17.80
2023-04-19T13:31:12.205Z,17.66
2023-04-19T13:33:13.773Z,17.62
2023-04-19T13:35:15.245Z,17.53
2023-04-19T13:37:16.928Z,17.33
2023-04-19T13:39:18.394Z,17.25
2023-04-19T13:41:20.583Z,17.26
2023-04-19T13:43:22.114Z,17.36
2023-04-19T13:45:23.634Z,17.52
2023-04-19T13:47:25.177Z,17.60
2023-04-19T13:49:26.720Z,17.70
2023-04-19T13:51:35.926Z,17.58
2023-04-19T13:53:48.290Z,17.48
2023-04-19T13:55:49.911Z,17.42
2023-04-19T13:57:51.382Z,17.46
2023-04-19T13:59:52.926Z,17.41
2023-04-19T14:01:55.985Z,17.32
2023-04-19T14:03:57.806Z,17.21
2023-04-19T14:05:59.428Z,17.01
2023-04-19T14:08:00.994Z,16.83
2023-04-19T14:10:02.507Z,16.68
2023-04-19T14:12:04.550Z,16.55
2023-04-19T14:14:06.397Z,16.45
2023-04-19T14:16:08.145Z,16.43
2023-04-19T14:18:09.774Z,16.52
2023-04-19T14:20:11.541Z,16.56
2023-04-19T14:22:13.045Z,16.48
2023-04-19T14:24:14.891Z,16.44
2023-04-19T14:26:16.525Z,16.39
2023-04-19T14:28:18.512Z,16.28
2023-04-19T14:30:20.752Z,16.26
2023-04-19T14:32:26.622Z,16.25
2023-04-19T14:34:28.789Z,16.30
2023-04-19T14:36:30.250Z,16.30
2023-04-19T14:38:32.534Z,16.32
2023-04-19T14:40:34.016Z,16.22
2023-04-19T14:42:35.550Z,16.15
2023-04-19T14:44:37.382Z,16.09
2023-04-19T14:46:38.840Z,16.15
2023-04-19T14:48:40.437Z,16.10
2023-04-19T14:50:41.914Z,16.08
2023-04-19T14:52:43.402Z,16.03
2023-04-19T14:54:45.386Z,15.95
2023-04-19T14:56:47.037Z,15.86
2023-04-19T14:58:48.503Z,15.79
2023-04-19T15:00:49.962Z,15.74
2023-04-19T15:02:51.585Z,15.77
2023-04-19T15:04:53.954Z,15.76
2023-04-19T15:06:55.560Z,15.78
2023-04-19T15:08:57.136Z,15.70
2023-04-19T15:10:59.013Z,15.65
2023-04-19T15:13:00.489Z,15.70
2023-04-19T15:15:02.051Z,15.73
2023-04-19T15:17:04.000Z,15.78
2023-04-19T15:19:07.436Z,15.69
2023-04-19T15:21:09.163Z,15.72
2023-04-19T15:23:10.642Z,15.82
2023-04-19T15:25:12.098Z,15.90
2023-04-19T15:27:13.554Z,15.84
2023-04-19T15:29:15.572Z,15.81
2023-04-19T15:31:17.686Z,15.83
2023-04-19T15:33:19.266Z,15.82
2023-04-19T15:35:21.419Z,15.73
2023-04-19T15:37:22.943Z,15.62
2023-04-19T15:39:25.340Z,15.53
2023-04-19T15:41:26.949Z,15.62
2023-04-19T15:43:28.458Z,15.71
2023-04-19T15:45:30.048Z,15.77
2023-04-19T15:47:31.549Z,15.77
2023-04-19T15:49:33.059Z,15.75
2023-04-19T15:51:34.521Z,15.71
2023-04-19T15:53:36.230Z,15.67
2023-04-19T15:55:38.985Z,15.56
2023-04-19T15:57:40.474Z,15.41
2023-04-19T15:59:41.945Z,15.30
2023-04-19T16:01:43.458Z,15.26
2023-04-19T16:03:45.192Z,15.28
2023-04-19T16:05:46.821Z,15.29
2023-04-19T16:07:48.378Z,15.22
2023-04-19T16:09:49.883Z,15.08
2023-04-19T16:11:51.363Z,15.02
2023-04-19T16:13:52.899Z,14.96
2023-04-19T16:15:54.497Z,14.94
2023-04-19T16:17:55.988Z,14.84
2023-04-19T16:19:57.818Z,14.73
2023-04-19T16:22:02.057Z,14.71
2023-04-19T16:24:03.597Z,14.69
2023-04-19T16:26:05.191Z,14.63
2023-04-19T16:28:06.877Z,14.60
2023-04-19T16:30:12.021Z,14.54
2023-04-19T16:32:13.529Z,14.47
2023-04-19T16:34:15.153Z,14.42
2023-04-19T16:36:16.913Z,14.35
2023-04-19T16:38:18.378Z,14.26
2023-04-19T16:40:21.649Z,14.19
2023-04-19T16:42:23.106Z,14.12
2023-04-19T16:44:24.618Z,14.06
2023-04-19T16:46:26.182Z,14.06
2023-04-19T16:48:27.743Z,14.03
2023-04-19T16:50:29.284Z,14.01
2023-04-19T16:52:32.171Z,13.98
2023-04-19T16:54:33.695Z,13.91
2023-04-19T16:56:35.229Z,13.83
2023-04-19T16:58:36.862Z,13.77
2023-04-19T17:00:38.361Z,13.73
2023-04-19T17:02:40.047Z,13.69
2023-04-19T17:04:41.893Z,13.67
2023-04-19T17:06:43.761Z,13.63
2023-04-19T17:08:45.255Z,13.60
2023-04-19T17:10:46.727Z,13.59
2023-04-19T17:12:48.716Z,13.62
2023-04-19T17:14:50.388Z,13.63
2023-04-19T17:16:51.862Z,13.61
2023-04-19T17:18:56.470Z,13.59
2023-04-19T17:20:58.415Z,13.60
2023-04-19T17:22:59.877Z,13.59
2023-04-19T17:25:02.256Z,13.55
2023-04-19T17:27:03.897Z,13.50
2023-04-19T17:29:05.706Z,13.47
2023-04-19T17:31:08.089Z,13.40
2023-04-19T17:33:09.625Z,13.35
2023-04-19T17:35:11.230Z,13.33
2023-04-19T17:37:12.715Z,13.32
2023-04-19T17:39:14.367Z,13.26
2023-04-19T17:41:16.410Z,13.14
2023-04-19T17:43:18.017Z,13.00
2023-04-19T17:45:19.628Z,12.88
2023-04-19T17:47:21.169Z,12.81
2023-04-19T17:49:22.892Z,12.72
2023-04-19T17:51:24.397Z,12.65
2023-04-19T17:53:25.864Z,12.57
2023-04-19T17:55:28.604Z,12.47
2023-04-19T17:57:31.956Z,12.37
2023-04-19T17:59:33.496Z,12.36
2023-04-19T18:01:35.303Z,12.36
2023-04-19T18:03:37.274Z,12.31
2023-04-19T18:05:40.001Z,12.26
2023-04-19T18:07:41.572Z,12.19
2023-04-19T18:09:43.157Z,12.14
2023-04-19T18:11:45.062Z,12.08
2023-04-19T18:13:46.616Z,12.01
2023-04-19T18:15:48.114Z,12.00
2023-04-19T18:17:49.681Z,11.92
2023-04-19T18:19:51.279Z,11.88
2023-04-19T18:21:52.725Z,11.83
2023-04-19T18:23:57.098Z,11.79
2023-04-19T18:26:02.256Z,11.73
2023-04-19T18:28:04.479Z,11.70
2023-04-19T18:30:06.942Z,11.63
2023-04-19T18:32:08.504Z,11.60
2023-04-19T18:34:12.357Z,11.57
2023-04-19T18:36:14.337Z,11.54
2023-04-19T18:38:15.849Z,11.47
2023-04-19T18:40:17.753Z,11.46
2023-04-19T18:42:19.230Z,11.36
2023-04-19T18:44:44.040Z,11.30
2023-04-19T18:46:42.451Z,11.24
2023-04-19T18:48:43.948Z,11.21
2023-04-19T18:50:45.719Z,11.17
2023-04-19T18:52:47.204Z,11.14
2023-04-19T18:54:48.785Z,11.06
2023-04-19T18:57:19.152Z,11.01
2023-04-19T18:59:14.003Z,10.96
2023-04-19T19:01:15.836Z,10.90
2023-04-19T19:03:43.871Z,10.83
2023-04-19T19:05:39.094Z,10.79
2023-04-19T19:07:41.634Z,10.77
2023-04-19T19:09:55.028Z,10.75
2023-04-19T19:11:57.598Z,10.71
2023-04-19T19:13:59.090Z,10.69
2023-04-19T19:16:00.707Z,10.65
2023-04-19T19:18:03.325Z,10.61
2023-04-19T19:20:06.788Z,10.58
2023-04-19T19:22:22.293Z,10.55
2023-04-19T19:24:28.777Z,10.50
2023-04-19T19:26:30.266Z,10.47
2023-04-19T19:28:31.819Z,10.48
2023-04-19T19:30:34.625Z,10.46
2023-04-19T19:32:36.235Z,10.44
2023-04-19T19:34:51.284Z,10.42
2023-04-19T19:36:56.792Z,10.37
2023-04-19T19:38:58.322Z,10.35
2023-04-19T19:41:48.917Z,10.37
2023-04-19T19:43:21.328Z,10.35
2023-04-19T19:45:23.369Z,10.34
2023-04-19T19:47:27.390Z,10.34
2023-04-19T19:49:28.982Z,10.32
2023-04-19T19:51:52.949Z,10.28
2023-04-19T19:53:52.081Z,10.24
2023-04-19T19:55:53.612Z,10.23
2023-04-19T20:00:18.033Z,10.25
2023-04-19T20:02:21.896Z,10.20
2023-04-19T20:04:24.208Z,10.17
2023-04-19T20:07:15.552Z,10.10
2023-04-19T20:08:49.926Z,10.06
2023-04-19T20:10:51.496Z,10.01
2023-04-19T20:12:52.978Z,10.01
2023-04-19T20:14:54.503Z,9.98
2023-04-19T20:16:56.450Z,10.00
2023-04-19T20:18:57.913Z,9.97
2023-04-19T20:20:59.482Z,9.96
2023-04-19T20:23:00.952Z,9.91
2023-04-19T20:25:02.492Z,9.89
2023-04-19T20:27:04.137Z,9.86
2023-04-19T20:29:05.979Z,9.85
2023-04-19T20:31:07.451Z,9.80
2023-04-19T20:33:09.141Z,9.76
2023-04-19T20:35:12.046Z,9.68
2023-04-19T20:37:13.806Z,9.67
2023-04-19T20:39:15.654Z,9.62
2023-04-19T20:41:18.435Z,9.59
2023-04-19T20:43:20.022Z,9.56
2023-04-19T20:45:21.518Z,9.52
2023-04-19T20:47:24.947Z,9.52
2023-04-19T20:49:26.456Z,9.54
2023-04-19T20:51:27.999Z,9.55
2023-04-19T20:53:29.514Z,9.53
2023-04-19T20:55:31.101Z,9.50
2023-04-19T20:57:32.562Z,9.46
2023-04-19T20:59:34.106Z,9.45
2023-04-19T21:01:35.681Z,9.43
2023-04-19T21:03:37.377Z,9.42
2023-04-19T21:05:38.998Z,9.42
2023-04-19T21:07:40.612Z,9.37
2023-04-19T21:09:42.070Z,9.36
2023-04-19T21:11:43.587Z,9.34
2023-04-19T21:13:45.149Z,9.30
2023-04-19T21:15:46.755Z,9.28
2023-04-19T21:17:48.269Z,9.25
2023-04-19T21:19:49.806Z,9.23
2023-04-19T21:21:51.353Z,9.21
2023-04-19T21:23:52.853Z,9.22
2023-04-19T21:25:54.378Z,9.20
2023-04-19T21:27:55.840Z,9.14
2023-04-19T21:29:57.315Z,9.18
2023-04-19T21:31:58.823Z,9.16
2023-04-19T21:34:00.422Z,9.12
2023-04-19T21:36:02.258Z,9.10
2023-04-19T21:38:04.026Z,9.08
2023-04-19T21:40:06.594Z,9.06
2023-04-19T21:42:08.103Z,9.01
2023-04-19T21:44:09.580Z,8.98
2023-04-19T21:46:11.051Z,8.95
2023-04-19T21:48:12.543Z,8.93
2023-04-19T21:50:14.042Z,8.92
2023-04-19T21:52:15.510Z,8.90
2023-04-19T21:54:26.702Z,8.94
2023-04-19T21:56:34.645Z,8.95
2023-04-19T21:58:36.385Z,8.94
2023-04-19T22:00:37.840Z,8.92
2023-04-19T22:02:39.489Z,8.93
2023-04-19T22:04:41.600Z,8.93
2023-04-19T22:06:46.040Z,8.92
2023-04-19T22:08:48.375Z,8.90
2023-04-19T22:10:50.487Z,8.90
2023-04-19T22:12:58.438Z,8.89
2023-04-19T22:15:01.378Z,8.87
2023-04-19T22:17:03.196Z,8.85
2023-04-19T22:19:04.720Z,8.84
2023-04-19T22:21:06.459Z,8.85
2023-04-19T22:23:07.974Z,8.86
2023-04-19T22:25:10.055Z,8.84
2023-04-19T22:27:11.612Z,8.84
2023-04-19T22:29:13.067Z,8.83
2023-04-19T22:31:14.787Z,8.83
2023-04-19T22:33:16.260Z,8.82
2023-04-19T22:35:17.821Z,8.81
2023-04-19T22:37:19.426Z,8.76
2023-04-19T22:39:21.110Z,8.72
2023-04-19T22:41:22.556Z,8.72
2023-04-19T22:43:24.476Z,8.70
2023-04-19T22:45:26.174Z,8.67
2023-04-19T22:47:27.648Z,8.66
2023-04-19T22:49:29.821Z,8.65
2023-04-19T22:51:31.350Z,8.65
2023-04-19T22:53:32.990Z,8.63
2023-04-19T22:55:34.459Z,8.63
2023-04-19T22:57:35.899Z,8.58
2023-04-19T22:59:37.492Z,8.56
2023-04-19T23:01:39.521Z,8.52
2023-04-19T23:03:41.051Z,8.47
2023-04-19T23:05:42.568Z,8.47
2023-04-19T23:07:45.187Z,8.45
2023-04-19T23:09:47.046Z,8.46
2023-04-19T23:11:48.792Z,8.44
2023-04-19T23:13:52.808Z,8.45
2023-04-19T23:15:54.525Z,8.43
2023-04-19T23:17:56.625Z,8.44
2023-04-19T23:19:58.173Z,8.47
2023-04-19T23:21:59.616Z,8.48
2023-04-19T23:24:01.118Z,8.49
2023-04-19T23:26:02.693Z,8.50
2023-04-19T23:28:04.244Z,8.53
2023-04-19T23:30:07.682Z,8.52
2023-04-19T23:32:09.150Z,8.54
2023-04-19T23:34:10.733Z,8.55
2023-04-19T23:36:12.239Z,8.58
2023-04-19T23:38:13.700Z,8.63
2023-04-19T23:40:15.367Z,8.64
2023-04-19T23:42:16.942Z,8.65
2023-04-19T23:44:18.475Z,8.67
2023-04-19T23:46:20.002Z,8.65
2023-04-19T23:48:21.483Z,8.64
2023-04-19T23:50:23.026Z,8.64
2023-04-19T23:52:24.934Z,8.61
2023-04-19T23:54:26.393Z,8.58
2023-04-19T23:56:27.895Z,8.56
2023-04-19T23:58:29.385Z,8.54
